Weather at Bucholz Army Air Field

Public forecast

Using degrees Celsius for public forecast. Weather courtesy of forecast.io.

Current aviation weather report (METAR) for Bucholz Army Air Field

Report is more than 6 hours old.

2022/11/14 15:20 (retrieved 2 years ago)

PKWA 141520Z AUTO 09020G27KT 10SM SCT009 BKN035 OVC060 26/24 A2976 RMK AO2 T02570241

Aviation forecast (TAF) for Bucholz Army Air Field

Forecast is more than 12 hours old.

2023/02/22 18:39 (retrieved 1 year ago)

TAF PKWA 221735Z 2218/2318 06016G22KT P6SM VCSH SCT022 BKN050